KOJC/OJC METAR and TAF weather

Enter ICAO airport designator
Station Type Date Time Source
KOJC METAR 2019/02/23 22:53 UTC NOAA

KOJC 232253Z 24014G26KT 10SM -RA FEW043 OVC060 07/05 A2944 RMK AO2 PK WND 23031/2223 LTG DSNT NE RAB33 SLP974 P0002 T00720050


Station Type Date Time Source
KOJC Decoded METAR 2019/02/23 22:53 UTC NOAA

OLATHE JOHNSON CO EXECUTIVE, KS, United States (KOJC) 38-50N 94-44W 326M
Feb 23, 2019 - 05:53 PM EST / 2019.02.23 2253 UTC
Wind: from the WSW (240 degrees) at 16 MPH (14 KT) gusting to 30 MPH (26 KT):0
Visibility: 10 mile(s):0
Sky conditions: overcast
Weather: light rain; Lightning observed
Precipitation last hour: 0.02 inches
Temperature: 45.0 F (7.2 C)
Dew Point: 41.0 F (5.0 C)
Relative Humidity: 85%
Pressure (altimeter): 29.44 in. Hg (996 hPa)
ob: KOJC 232253Z 24014G26KT 10SM -RA FEW043 OVC060 07/05 A2944 RMK AO2 PK WND 23031/2223 LTG DSNT NE RAB33 SLP974 P0002 T00720050
cycle: 23

Station Type Date Time Source
KOJC TAF UTC NOAA

Error!


Example: see airport list